CheckWX is a tool to help pilots better visualize weather data.  It is not intended as a substitute for an official pre-flight weather briefing.

18:47:09 UTC

KGMJ METAR
Grove Municipal Airport
Grove, Oklahoma, USA
Current

32 mins ago

KGMJ 141815Z AUTO 02005KT 4SM BR BKN008 BKN080 02/00 A2994 RMK AO2
Observed
Dec-14 @ 18:15 UTC
Wind
  • 020° at 5 KTS
Visibility
4 SM
Flight Rules
IFR
Conditions
Mist
Cloud Levels
  • Broken at 800' AGL
  • Broken at 8,000' AGL
Temperature
C / 36°F
Dewpoint
C / 32°F
Humidity
87%
Altimeter
29.94" Hg
Pressure
1013.92 hPa
Previous

52 mins ago

KGMJ 141755Z AUTO 36007KT 4SM BR BKN008 02/00 A2996 RMK AO2
Observed
Dec-14 @ 17:55 UTC
Wind
  • 360° at 7 KTS
Visibility
4 SM
Flight Rules
IFR
Conditions
Mist
Cloud Levels
  • Broken at 800' AGL
Temperature
C / 36°F
Dewpoint
C / 32°F
Humidity
87%
Altimeter
29.96" Hg
Pressure
1014.52 hPa
Previous

1 hour ago

KGMJ 141735Z AUTO 34006KT 4SM BR BKN008 02/00 A2996 RMK AO2
Observed
Dec-14 @ 17:35 UTC
Wind
  • 340° at 6 KTS
Visibility
4 SM
Flight Rules
IFR
Conditions
Mist
Cloud Levels
  • Broken at 800' AGL
Temperature
C / 36°F
Dewpoint
C / 32°F
Humidity
87%
Altimeter
29.96" Hg
Pressure
1014.52 hPa